Time;durP1;ratioP1;P1;durP2;ratioP2;P2;SDS_P1;SDS_P2;PMS_P1;PMS_P2;Temp;Humidity;BMP_temperature;BMP_pressure;BME280_temperature;BME280_humidity;BME280_pressure;Samples;Min_cycle;Max_cycle;Signal;HPM_P1;HPM_P2
2021/04/09 00:02:06;;;;;;;40.40;16.60;;;;;;;;;;739283;189;1024318;-78
2021/04/09 00:04:31;;;;;;;35.90;19.90;;;;;;;;;;734384;189;1022341;-78
2021/04/09 00:06:57;;;;;;;33.83;14.60;;;;;;;;;;736951;189;937887;-78
2021/04/09 00:09:23;;;;;;;29.83;15.07;;;;;;;;;;740752;189;878602;-76
2021/04/09 00:11:49;;;;;;;23.07;14.63;;;;;;;;;;738554;189;921055;-78
2021/04/09 00:14:15;;;;;;;24.40;15.67;;;;;;;;;;736565;189;915954;-78
2021/04/09 00:16:41;;;;;;;29.70;14.93;;;;;;;;;;734592;189;919032;-79
2021/04/09 00:19:07;;;;;;;34.23;19.70;;;;;;;;;;734523;189;917931;-78
2021/04/09 00:21:32;;;;;;;33.83;16.73;;;;;;;;;;735809;189;1060290;-79
2021/04/09 00:23:58;;;;;;;47.50;19.27;;;;;;;;;;738188;189;918204;-79
2021/04/09 00:26:24;;;;;;;51.70;24.07;;;;;;;;;;736403;189;917528;-79
2021/04/09 00:28:50;;;;;;;48.20;22.83;;;;;;;;;;735112;189;919781;-77
2021/04/09 00:31:16;;;;;;;41.80;22.37;;;;;;;;;;729605;189;919217;-78
2021/04/09 00:33:42;;;;;;;36.80;19.60;;;;;;;;;;736145;189;917935;-77
2021/04/09 00:36:07;;;;;;;41.47;19.80;;;;;;;;;;727844;189;919543;-78
2021/04/09 00:38:33;;;;;;;34.38;18.50;;;;;;;;;;735825;189;918722;-79
2021/04/09 00:40:59;;;;;;;27.97;15.10;;;;;;;;;;736789;189;918364;-77
2021/04/09 00:43:25;;;;;;;34.23;14.20;;;;;;;;;;734456;189;919261;-77
2021/04/09 00:45:51;;;;;;;28.13;15.33;;;;;;;;;;729676;189;1020140;-78
2021/04/09 00:48:17;;;;;;;22.47;13.63;;;;;;;;;;732054;189;919084;-76
2021/04/09 00:50:42;;;;;;;27.87;15.30;;;;;;;;;;732479;189;917465;-78
2021/04/09 00:53:08;;;;;;;29.50;13.98;;;;;;;;;;736195;189;918934;-77
2021/04/09 00:55:34;;;;;;;26.17;14.50;;;;;;;;;;732340;189;919324;-78
2021/04/09 00:58:00;;;;;;;26.70;15.00;;;;;;;;;;740720;189;909367;-79
2021/04/09 01:00:26;;;;;;;29.63;13.93;;;;;;;;;;741758;189;919203;-77
2021/04/09 01:02:52;;;;;;;25.60;14.10;;;;;;;;;;729903;189;1609484;-78
2021/04/09 01:05:18;;;;;;;25.23;14.30;;;;;;;;;;742880;189;918625;-78
2021/04/09 01:07:44;;;;;;;26.93;15.10;;;;;;;;;;732522;189;919013;-78
2021/04/09 01:10:10;;;;;;;24.73;14.30;;;;;;;;;;735029;189;919423;-79
2021/04/09 01:12:36;;;;;;;32.10;15.30;;;;;;;;;;734081;189;920153;-77
2021/04/09 01:15:02;;;;;;;25.80;14.57;;;;;;;;;;743883;189;919039;-78
2021/04/09 01:17:42;;;;;;;28.03;14.30;;;;;;;;;;734670;189;918954;-78
2021/04/09 01:20:24;;;;;;;25.80;14.47;;;;;;;;;;727703;189;920055;-77
2021/04/09 01:22:51;;;;;;;30.87;16.93;;;;;;;;;;732158;189;919691;-77
2021/04/09 01:25:19;;;;;;;27.50;15.20;;;;;;;;;;725689;189;919278;-76
2021/04/09 01:27:48;;;;;;;26.10;13.88;;;;;;;;;;736381;189;858868;-76
2021/04/09 01:30:18;;;;;;;29.90;12.90;;;;;;;;;;740033;189;918735;-75
2021/04/09 01:32:43;;;;;;;24.20;13.67;;;;;;;;;;732822;189;918802;-76
2021/04/09 01:35:10;;;;;;;26.40;13.93;;;;;;;;;;731567;189;919069;-76
2021/04/09 01:37:39;;;;;;;25.33;14.77;;;;;;;;;;738550;189;918890;-77
2021/04/09 01:40:06;;;;;;;24.23;14.50;;;;;;;;;;737433;189;918719;-77
2021/04/09 01:42:32;;;;;;;26.90;13.63;;;;;;;;;;730231;189;1021250;-75
2021/04/09 01:44:58;;;;;;;22.47;12.03;;;;;;;;;;735035;189;918699;-78
2021/04/09 01:47:24;;;;;;;25.87;14.03;;;;;;;;;;729040;189;918605;-77
2021/04/09 01:49:49;;;;;;;23.30;13.73;;;;;;;;;;733667;189;916098;-78
2021/04/09 01:52:15;;;;;;;28.27;13.10;;;;;;;;;;737424;189;915976;-78
2021/04/09 01:54:41;;;;;;;21.10;12.53;;;;;;;;;;739924;188;915846;-78
2021/04/09 01:57:07;;;;;;;23.23;14.30;;;;;;;;;;738391;189;919221;-77
2021/04/09 01:59:33;;;;;;;23.07;12.87;;;;;;;;;;730691;189;979866;-77
2021/04/09 02:01:59;;;;;;;21.40;13.73;;;;;;;;;;741537;189;918982;-77
2021/04/09 02:04:25;;;;;;;26.23;12.90;;;;;;;;;;730960;189;918544;-75
2021/04/09 02:06:51;;;;;;;24.33;14.53;;;;;;;;;;733033;189;919318;-77
2021/04/09 02:09:17;;;;;;;23.50;13.50;;;;;;;;;;733165;189;1596442;-76
2021/04/09 02:11:43;;;;;;;20.73;12.53;;;;;;;;;;737254;189;919966;-77
2021/04/09 02:14:10;;;;;;;27.73;13.43;;;;;;;;;;732270;189;920139;-78
2021/04/09 02:16:36;;;;;;;26.90;14.07;;;;;;;;;;736409;187;925735;-77
2021/04/09 02:19:02;;;;;;;21.77;12.40;;;;;;;;;;740495;189;920488;-76
2021/04/09 02:21:28;;;;;;;22.80;15.17;;;;;;;;;;739436;189;918984;-77
2021/04/09 02:23:54;;;;;;;19.07;13.97;;;;;;;;;;737521;189;919685;-77
2021/04/09 02:26:20;;;;;;;23.33;13.67;;;;;;;;;;741289;189;918024;-77
2021/04/09 02:28:45;;;;;;;23.83;13.67;;;;;;;;;;730062;189;918674;-77
2021/04/09 02:31:12;;;;;;;21.77;13.98;;;;;;;;;;725589;189;1020986;-76
2021/04/09 02:33:37;;;;;;;20.90;12.10;;;;;;;;;;737767;189;918267;-76
2021/04/09 02:36:09;;;;;;;29.30;13.57;;;;;;;;;;729083;188;918305;-77
2021/04/09 02:38:35;;;;;;;24.30;14.17;;;;;;;;;;736377;187;919064;-76
2021/04/09 02:41:00;;;;;;;30.12;13.30;;;;;;;;;;734119;189;919188;-77
2021/04/09 02:43:26;;;;;;;30.97;13.57;;;;;;;;;;741461;189;1020694;-77
2021/04/09 02:45:52;;;;;;;22.53;12.60;;;;;;;;;;734056;189;918844;-76
2021/04/09 02:48:18;;;;;;;21.60;13.20;;;;;;;;;;734961;189;918941;-77
2021/04/09 02:50:44;;;;;;;24.83;14.13;;;;;;;;;;738764;189;918622;-76
2021/04/09 02:53:10;;;;;;;25.00;13.53;;;;;;;;;;736206;189;1109508;-76
2021/04/09 02:55:35;;;;;;;23.40;13.55;;;;;;;;;;729750;189;1627556;-77
2021/04/09 02:58:01;;;;;;;19.50;12.73;;;;;;;;;;734590;189;917616;-74
2021/04/09 03:00:28;;;;;;;28.60;15.27;;;;;;;;;;729018;190;918732;-77
2021/04/09 03:02:54;;;;;;;25.37;13.70;;;;;;;;;;735292;189;919102;-75
2021/04/09 03:05:20;;;;;;;28.87;15.30;;;;;;;;;;739665;188;918445;-76
2021/04/09 03:07:46;;;;;;;26.58;13.43;;;;;;;;;;742972;189;916797;-75
2021/04/09 03:10:12;;;;;;;23.53;13.20;;;;;;;;;;736925;189;920545;-76
2021/04/09 03:12:37;;;;;;;24.47;15.00;;;;;;;;;;722385;193;919304;-75
2021/04/09 03:15:04;;;;;;;24.83;14.17;;;;;;;;;;742357;189;919001;-77
2021/04/09 03:17:31;;;;;;;26.83;14.73;;;;;;;;;;731398;189;1157797;-76
2021/04/09 03:19:56;;;;;;;21.10;13.07;;;;;;;;;;735747;189;988669;-75
2021/04/09 03:22:22;;;;;;;24.08;14.63;;;;;;;;;;733227;189;1017604;-73
2021/04/09 03:24:48;;;;;;;21.83;14.50;;;;;;;;;;738827;189;915477;-74
2021/04/09 03:27:15;;;;;;;23.87;15.13;;;;;;;;;;734658;189;914685;-76
2021/04/09 03:29:40;;;;;;;21.08;13.48;;;;;;;;;;735915;189;918888;-75
2021/04/09 03:32:06;;;;;;;22.93;12.87;;;;;;;;;;739776;189;919835;-76
2021/04/09 03:34:32;;;;;;;21.90;13.90;;;;;;;;;;738170;189;919623;-77
2021/04/09 03:36:59;;;;;;;25.93;15.03;;;;;;;;;;734029;189;925943;-75
2021/04/09 03:39:25;;;;;;;23.27;14.80;;;;;;;;;;740767;189;916862;-74
2021/04/09 03:41:51;;;;;;;23.90;13.93;;;;;;;;;;728075;189;919230;-76
2021/04/09 03:44:17;;;;;;;21.27;12.50;;;;;;;;;;732658;189;918596;-76
2021/04/09 03:46:43;;;;;;;20.98;13.27;;;;;;;;;;739437;189;919180;-73
2021/04/09 03:49:09;;;;;;;25.70;12.70;;;;;;;;;;740673;186;916211;-76
2021/04/09 03:51:34;;;;;;;23.83;13.23;;;;;;;;;;733617;189;918057;-76
2021/04/09 03:54:00;;;;;;;25.90;13.50;;;;;;;;;;734510;189;909862;-75
2021/04/09 03:56:26;;;;;;;28.70;15.07;;;;;;;;;;735052;189;914901;-76
2021/04/09 03:58:52;;;;;;;24.07;14.67;;;;;;;;;;733658;189;919705;-75
2021/04/09 04:01:18;;;;;;;29.90;16.00;;;;;;;;;;735697;189;920183;-75
2021/04/09 04:03:44;;;;;;;24.53;15.10;;;;;;;;;;729245;189;1508086;-74
2021/04/09 04:06:09;;;;;;;25.87;14.97;;;;;;;;;;739257;189;916169;-76
2021/04/09 04:08:35;;;;;;;21.57;14.53;;;;;;;;;;731206;189;1019002;-74
2021/04/09 04:11:01;;;;;;;24.07;14.63;;;;;;;;;;742962;189;889697;-75
2021/04/09 04:13:27;;;;;;;22.30;13.25;;;;;;;;;;733033;189;1021352;-75
2021/04/09 04:15:53;;;;;;;21.37;13.93;;;;;;;;;;734296;189;918337;-75
2021/04/09 04:18:19;;;;;;;26.37;15.47;;;;;;;;;;729772;188;1021424;-73
2021/04/09 04:20:45;;;;;;;26.23;14.50;;;;;;;;;;738733;189;985803;-74
2021/04/09 04:23:10;;;;;;;27.13;13.97;;;;;;;;;;740024;189;918746;-74
2021/04/09 04:25:36;;;;;;;30.00;15.63;;;;;;;;;;732501;189;1233515;-75
2021/04/09 04:28:02;;;;;;;23.50;13.60;;;;;;;;;;741921;189;919656;-76
2021/04/09 04:30:28;;;;;;;29.13;15.20;;;;;;;;;;734545;189;943587;-74
2021/04/09 04:32:54;;;;;;;24.53;14.80;;;;;;;;;;734172;189;917160;-74
2021/04/09 04:35:20;;;;;;;31.37;15.87;;;;;;;;;;735726;189;916393;-75
2021/04/09 04:37:45;;;;;;;39.30;16.73;;;;;;;;;;740092;189;918490;-75
2021/04/09 04:40:11;;;;;;;24.87;16.07;;;;;;;;;;734414;189;1020607;-73
2021/04/09 04:42:37;;;;;;;26.07;15.73;;;;;;;;;;730730;189;919532;-70
2021/04/09 04:45:03;;;;;;;30.77;17.08;;;;;;;;;;740113;187;914408;-73
2021/04/09 04:47:29;;;;;;;39.40;16.83;;;;;;;;;;729366;189;2146805;-73
2021/04/09 04:49:55;;;;;;;30.40;16.90;;;;;;;;;;728801;189;946380;-73
2021/04/09 04:52:21;;;;;;;31.07;15.47;;;;;;;;;;736388;189;917088;-72
2021/04/09 04:54:47;;;;;;;28.53;16.90;;;;;;;;;;737963;189;913529;-74
2021/04/09 04:57:13;;;;;;;28.07;16.57;;;;;;;;;;734550;189;917022;-73
2021/04/09 04:59:38;;;;;;;31.37;17.23;;;;;;;;;;741561;189;915604;-73
2021/04/09 05:02:04;;;;;;;33.10;18.13;;;;;;;;;;732594;189;918332;-73
2021/04/09 05:04:30;;;;;;;42.17;19.00;;;;;;;;;;735691;189;917980;-72
2021/04/09 05:06:56;;;;;;;33.83;19.33;;;;;;;;;;738220;189;918567;-75
2021/04/09 05:09:22;;;;;;;37.73;19.77;;;;;;;;;;737759;189;627676;-75
2021/04/09 05:11:48;;;;;;;32.85;18.37;;;;;;;;;;733836;189;775533;-73
2021/04/09 05:14:13;;;;;;;34.60;19.90;;;;;;;;;;741658;189;628139;-72
2021/04/09 05:16:39;;;;;;;41.97;21.70;;;;;;;;;;741864;189;676186;-73
2021/04/09 05:19:05;;;;;;;41.10;20.30;;;;;;;;;;741643;189;645139;-73
2021/04/09 05:21:31;;;;;;;40.63;20.33;;;;;;;;;;737132;189;623838;-73
2021/04/09 05:23:57;;;;;;;38.17;19.60;;;;;;;;;;745120;189;627754;-72
2021/04/09 05:26:23;;;;;;;39.00;19.57;;;;;;;;;;738263;189;639048;-74
2021/04/09 05:28:49;;;;;;;38.13;19.87;;;;;;;;;;739371;188;625705;-74
2021/04/09 05:31:18;;;;;;;47.83;19.07;;;;;;;;;;747086;189;627575;-74
2021/04/09 05:33:44;;;;;;;34.90;19.00;;;;;;;;;;743875;189;638168;-76
2021/04/09 05:36:10;;;;;;;39.03;17.30;;;;;;;;;;740230;189;633398;-75
2021/04/09 05:38:36;;;;;;;33.90;15.67;;;;;;;;;;736508;189;665159;-77
2021/04/09 05:41:01;;;;;;;37.33;19.50;;;;;;;;;;737283;189;623409;-76
2021/04/09 05:43:27;;;;;;;37.73;17.27;;;;;;;;;;736275;189;630674;-75
2021/04/09 05:45:53;;;;;;;29.20;16.53;;;;;;;;;;733997;189;647476;-76
2021/04/09 05:48:19;;;;;;;32.10;16.10;;;;;;;;;;739144;189;664362;-75
2021/04/09 05:50:45;;;;;;;32.22;15.25;;;;;;;;;;738905;189;841947;-75
2021/04/09 05:53:11;;;;;;;31.70;16.93;;;;;;;;;;740459;188;614383;-76
2021/04/09 05:55:36;;;;;;;32.00;14.40;;;;;;;;;;742939;189;613438;-77
2021/04/09 05:58:02;;;;;;;25.10;12.20;;;;;;;;;;737913;189;620065;-78
2021/04/09 06:00:28;;;;;;;19.57;11.50;;;;;;;;;;740633;189;616068;-79
2021/04/09 06:02:54;;;;;;;21.60;12.57;;;;;;;;;;734088;189;623464;-78
2021/04/09 06:05:20;;;;;;;19.50;11.97;;;;;;;;;;746268;185;630344;-78
2021/04/09 06:07:50;;;;;;;24.50;11.27;;;;;;;;;;737972;189;627635;-77
2021/04/09 06:10:16;;;;;;;18.90;9.40;;;;;;;;;;741258;189;627098;-78
2021/04/09 06:12:41;;;;;;;16.40;9.50;;;;;;;;;;736447;189;638241;-78
2021/04/09 06:15:09;;;;;;;17.30;8.00;;;;;;;;;;739230;189;637147;-77
2021/04/09 06:17:34;;;;;;;12.33;7.67;;;;;;;;;;740010;189;648204;-77
2021/04/09 06:20:01;;;;;;;9.50;6.18;;;;;;;;;;737467;189;643457;-74
2021/04/09 06:22:26;;;;;;;17.73;8.13;;;;;;;;;;740282;189;629008;-75
2021/04/09 06:24:52;;;;;;;11.27;5.40;;;;;;;;;;736280;189;626717;-75
2021/04/09 06:27:18;;;;;;;7.00;4.00;;;;;;;;;;734672;189;649553;-74
2021/04/09 06:29:44;;;;;;;8.73;5.27;;;;;;;;;;741459;189;697689;-74
2021/04/09 06:32:10;;;;;;;5.40;3.60;;;;;;;;;;736771;189;643571;-74
2021/04/09 06:34:37;;;;;;;11.17;5.00;;;;;;;;;;739205;189;631010;-73
2021/04/09 06:37:03;;;;;;;11.40;4.67;;;;;;;;;;743277;189;614955;-74
2021/04/09 06:39:28;;;;;;;6.10;4.50;;;;;;;;;;738312;187;690115;-75
2021/04/09 06:41:54;;;;;;;7.17;3.90;;;;;;;;;;740770;189;637412;-74
2021/04/09 06:44:20;;;;;;;7.43;3.80;;;;;;;;;;744217;189;629194;-77
2021/04/09 06:46:46;;;;;;;8.35;4.47;;;;;;;;;;735774;189;648829;-75
2021/04/09 06:49:12;;;;;;;9.07;4.27;;;;;;;;;;736995;189;637449;-75
2021/04/09 06:51:38;;;;;;;7.40;4.23;;;;;;;;;;736929;189;651927;-73
2021/04/09 06:54:04;;;;;;;7.60;3.77;;;;;;;;;;744547;189;621189;-73
2021/04/09 06:56:30;;;;;;;7.27;3.90;;;;;;;;;;737383;189;643443;-72
2021/04/09 06:58:55;;;;;;;7.80;4.17;;;;;;;;;;740543;189;626382;-72
2021/04/09 07:01:21;;;;;;;6.13;4.00;;;;;;;;;;744091;189;628625;-73
2021/04/09 07:03:47;;;;;;;5.40;3.93;;;;;;;;;;738061;189;649821;-72
2021/04/09 07:06:14;;;;;;;8.30;5.00;;;;;;;;;;738183;189;1532651;-73
2021/04/09 07:08:39;;;;;;;7.17;3.90;;;;;;;;;;741569;189;621558;-73
2021/04/09 07:11:05;;;;;;;7.97;4.93;;;;;;;;;;738364;189;638117;-73
2021/04/09 07:13:31;;;;;;;10.90;4.10;;;;;;;;;;737914;189;645033;-71
2021/04/09 07:15:57;;;;;;;6.23;4.70;;;;;;;;;;739947;189;633178;-73
2021/04/09 07:18:23;;;;;;;5.47;3.60;;;;;;;;;;732425;190;624967;-72
2021/04/09 07:20:48;;;;;;;6.20;4.00;;;;;;;;;;735835;189;638775;-72
2021/04/09 07:23:16;;;;;;;8.97;3.97;;;;;;;;;;741567;189;642046;-72
2021/04/09 07:25:41;;;;;;;14.70;4.90;;;;;;;;;;743181;189;612996;-72
2021/04/09 07:28:10;;;;;;;4.20;2.10;;;;;;;;;;741974;189;633278;-71
2021/04/09 07:30:35;;;;;;;6.53;4.93;;;;;;;;;;739456;189;643329;-72
2021/04/09 07:33:02;;;;;;;10.27;5.30;;;;;;;;;;740235;189;618034;-72
2021/04/09 07:35:28;;;;;;;7.87;4.90;;;;;;;;;;738666;189;639491;-73
2021/04/09 07:37:55;;;;;;;8.67;5.40;;;;;;;;;;739880;189;635520;-73
2021/04/09 07:40:21;;;;;;;5.77;4.97;;;;;;;;;;739921;189;626482;-72
2021/04/09 07:42:47;;;;;;;6.97;4.03;;;;;;;;;;741375;189;627887;-73
2021/04/09 07:45:13;;;;;;;8.25;4.40;;;;;;;;;;740182;189;633093;-73
2021/04/09 07:47:39;;;;;;;5.27;3.60;;;;;;;;;;739428;189;644594;-73
2021/04/09 07:50:06;;;;;;;9.70;5.13;;;;;;;;;;741191;189;616683;-71
2021/04/09 07:52:37;;;;;;;11.43;5.30;;;;;;;;;;742978;187;625087;-72
2021/04/09 07:55:09;;;;;;;7.17;4.57;;;;;;;;;;729878;193;616614;-73
2021/04/09 07:57:35;;;;;;;15.33;6.00;;;;;;;;;;741794;189;628777;-73
2021/04/09 08:00:03;;;;;;;10.87;5.80;;;;;;;;;;744612;189;638412;-70
2021/04/09 08:02:35;;;;;;;8.90;5.27;;;;;;;;;;740664;189;633246;-73
2021/04/09 08:05:02;;;;;;;9.83;4.73;;;;;;;;;;735390;189;918237;-73
2021/04/09 08:07:31;;;;;;;9.20;5.60;;;;;;;;;;736827;189;918639;-73
2021/04/09 08:09:57;;;;;;;14.25;5.40;;;;;;;;;;741026;189;919543;-73
2021/04/09 08:12:28;;;;;;;9.17;4.80;;;;;;;;;;734313;189;905935;-73
2021/04/09 08:14:54;;;;;;;11.83;4.80;;;;;;;;;;735204;189;1020742;-73
2021/04/09 08:17:21;;;;;;;6.40;3.37;;;;;;;;;;738233;188;734933;-69
2021/04/09 08:19:46;;;;;;;8.27;5.90;;;;;;;;;;741552;189;618997;-74
2021/04/09 08:22:12;;;;;;;7.10;5.57;;;;;;;;;;739050;189;616585;-72
2021/04/09 08:24:38;;;;;;;7.30;4.93;;;;;;;;;;736545;189;615083;-73
2021/04/09 08:27:04;;;;;;;7.63;4.70;;;;;;;;;;736822;189;630699;-71
2021/04/09 08:29:30;;;;;;;6.00;3.67;;;;;;;;;;741294;189;649137;-72
2021/04/09 08:31:56;;;;;;;8.67;4.87;;;;;;;;;;737411;189;629504;-77
2021/04/09 08:34:22;;;;;;;6.50;4.37;;;;;;;;;;745594;189;623917;-73
2021/04/09 08:36:48;;;;;;;6.23;4.03;;;;;;;;;;742318;189;617499;-72
2021/04/09 08:39:14;;;;;;;9.73;4.70;;;;;;;;;;727484;189;2276745;-73
2021/04/09 08:41:41;;;;;;;6.27;3.23;;;;;;;;;;740802;189;634950;-74
2021/04/09 08:44:07;;;;;;;4.40;3.90;;;;;;;;;;741668;189;653875;-73
2021/04/09 08:46:33;;;;;;;9.80;4.33;;;;;;;;;;735160;189;626764;-73
2021/04/09 08:48:58;;;;;;;5.93;4.13;;;;;;;;;;734060;189;854305;-73
2021/04/09 08:51:25;;;;;;;8.70;4.00;;;;;;;;;;744462;189;635841;-75
2021/04/09 08:53:51;;;;;;;6.70;4.37;;;;;;;;;;737447;189;619191;-73
2021/04/09 08:56:34;;;;;;;8.93;5.00;;;;;;;;;;740203;189;637184;-72
2021/04/09 08:59:00;;;;;;;5.63;3.53;;;;;;;;;;729760;189;1445648;-73
2021/04/09 09:01:26;;;;;;;5.67;4.43;;;;;;;;;;743166;189;624780;-72
2021/04/09 09:03:52;;;;;;;7.87;4.77;;;;;;;;;;739829;189;628776;-74
2021/04/09 09:06:18;;;;;;;5.93;4.07;;;;;;;;;;740506;189;645935;-73
2021/04/09 09:08:58;;;;;;;5.67;4.43;;;;;;;;;;730978;189;643320;-73
2021/04/09 09:11:30;;;;;;;5.97;4.37;;;;;;;;;;741761;189;626976;-73
2021/04/09 09:13:56;;;;;;;11.90;4.80;;;;;;;;;;741863;189;634603;-73
2021/04/09 09:16:23;;;;;;;6.33;4.23;;;;;;;;;;738011;189;638801;-72
2021/04/09 09:18:50;;;;;;;7.13;4.20;;;;;;;;;;733675;189;627220;-73
2021/04/09 09:21:21;;;;;;;8.77;4.90;;;;;;;;;;741446;189;632011;-73
2021/04/09 09:23:57;;;;;;;8.20;5.00;;;;;;;;;;743546;189;630118;-72
2021/04/09 09:26:44;;;;;;;10.93;4.83;;;;;;;;;;739715;189;670583;-72
2021/04/09 09:29:10;;;;;;;7.80;5.33;;;;;;;;;;738361;189;633329;-74
2021/04/09 09:31:36;;;;;;;7.20;4.63;;;;;;;;;;740082;189;646985;-75
2021/04/09 09:34:20;;;;;;;8.10;5.10;;;;;;;;;;738269;189;651550;-73
2021/04/09 09:36:52;;;;;;;7.63;4.67;;;;;;;;;;734058;189;665911;-72
2021/04/09 09:39:18;;;;;;;7.50;5.20;;;;;;;;;;741585;189;641512;-73
2021/04/09 09:41:44;;;;;;;6.90;4.00;;;;;;;;;;737028;189;623076;-73
2021/04/09 09:44:28;;;;;;;7.00;4.23;;;;;;;;;;737193;189;624907;-75
2021/04/09 09:47:00;;;;;;;9.80;5.40;;;;;;;;;;737573;189;732013;-73
2021/04/09 09:49:26;;;;;;;8.67;5.50;;;;;;;;;;738638;189;623006;-74
2021/04/09 09:51:52;;;;;;;11.47;6.27;;;;;;;;;;740862;189;621217;-74
2021/04/09 09:54:20;;;;;;;12.33;6.67;;;;;;;;;;741959;189;617192;-73
2021/04/09 09:56:45;;;;;;;7.47;6.00;;;;;;;;;;737586;189;642347;-73
2021/04/09 09:59:11;;;;;;;10.30;7.03;;;;;;;;;;737524;189;642683;-72
2021/04/09 10:01:44;;;;;;;12.70;6.83;;;;;;;;;;739289;189;638417;-73
2021/04/09 10:04:11;;;;;;;7.97;6.27;;;;;;;;;;738860;189;816640;-72
2021/04/09 10:06:37;;;;;;;9.68;6.90;;;;;;;;;;734653;189;1413364;-72
2021/04/09 10:09:03;;;;;;;9.77;6.18;;;;;;;;;;743139;189;628613;-72
2021/04/09 10:11:29;;;;;;;14.63;6.20;;;;;;;;;;731290;190;620948;-74
2021/04/09 10:13:56;;;;;;;8.13;5.00;;;;;;;;;;738653;187;631839;-73
2021/04/09 10:16:21;;;;;;;11.67;6.37;;;;;;;;;;738885;188;643864;-73
2021/04/09 10:18:48;;;;;;;10.80;7.10;;;;;;;;;;742585;189;628254;-71
2021/04/09 10:21:13;;;;;;;7.47;5.40;;;;;;;;;;735986;189;626526;-72
2021/04/09 10:23:38;;;;;;;10.70;7.20;;;;;;;;;;741262;189;621083;-71
2021/04/09 10:26:05;;;;;;;6.20;4.77;;;;;;;;;;741114;189;623739;-73
2021/04/09 10:28:31;;;;;;;13.17;7.47;;;;;;;;;;737789;189;623945;-72
2021/04/09 10:30:57;;;;;;;8.33;6.00;;;;;;;;;;738251;189;627241;-71
2021/04/09 10:33:29;;;;;;;11.40;6.30;;;;;;;;;;739227;189;674353;-72
2021/04/09 10:35:55;;;;;;;10.57;7.73;;;;;;;;;;746274;189;616875;-69
2021/04/09 10:38:22;;;;;;;10.30;6.70;;;;;;;;;;735897;189;636237;-72
2021/04/09 10:40:51;;;;;;;8.60;6.90;;;;;;;;;;737860;189;998598;-73
2021/04/09 10:43:23;;;;;;;14.90;6.73;;;;;;;;;;743678;189;619839;-70
2021/04/09 10:45:49;;;;;;;11.57;7.50;;;;;;;;;;744083;189;626383;-73
2021/04/09 10:48:14;;;;;;;7.63;6.20;;;;;;;;;;735091;189;665127;-73
2021/04/09 10:50:46;;;;;;;9.87;4.57;;;;;;;;;;738153;189;650339;-72
2021/04/09 10:53:12;;;;;;;10.97;6.67;;;;;;;;;;736744;189;710185;-72
2021/04/09 10:55:38;;;;;;;12.50;7.37;;;;;;;;;;738287;189;650977;-72
2021/04/09 10:58:03;;;;;;;10.90;7.20;;;;;;;;;;735515;189;659357;-72
2021/04/09 11:00:29;;;;;;;16.20;6.97;;;;;;;;;;738608;189;628437;-70
2021/04/09 11:02:55;;;;;;;11.40;7.13;;;;;;;;;;740267;189;627322;-72
2021/04/09 11:05:21;;;;;;;13.67;8.10;;;;;;;;;;739954;189;639248;-72
2021/04/09 11:07:47;;;;;;;11.70;7.25;;;;;;;;;;738708;189;634144;-71
2021/04/09 11:10:13;;;;;;;7.77;5.67;;;;;;;;;;737019;189;616269;-69
2021/04/09 11:12:39;;;;;;;10.10;6.80;;;;;;;;;;738574;189;629377;-71
2021/04/09 11:15:05;;;;;;;10.10;6.80;;;;;;;;;;733154;189;893528;-72
2021/04/09 11:17:30;;;;;;;12.87;6.90;;;;;;;;;;741998;189;699085;-71
2021/04/09 11:19:58;;;;;;;13.70;7.70;;;;;;;;;;736128;189;622179;-72
2021/04/09 11:22:22;;;;;;;8.70;6.20;;;;;;;;;;738347;189;656425;-70
2021/04/09 11:24:54;;;;;;;13.20;6.80;;;;;;;;;;735881;189;633629;-70
2021/04/09 11:27:20;;;;;;;18.23;7.10;;;;;;;;;;741399;189;625739;-72
2021/04/09 11:29:45;;;;;;;13.10;7.87;;;;;;;;;;737462;189;618371;-71
2021/04/09 11:32:12;;;;;;;20.80;7.27;;;;;;;;;;739430;189;635542;-70
2021/04/09 11:34:38;;;;;;;11.27;6.50;;;;;;;;;;737646;189;1089918;-71
2021/04/09 11:37:04;;;;;;;12.90;6.90;;;;;;;;;;741983;189;628640;-70
2021/04/09 11:39:30;;;;;;;8.30;5.50;;;;;;;;;;737165;189;617064;-72
2021/04/09 11:41:57;;;;;;;10.27;6.33;;;;;;;;;;741056;189;627163;-71
2021/04/09 11:44:24;;;;;;;9.70;6.80;;;;;;;;;;745186;185;616568;-72
2021/04/09 11:46:49;;;;;;;9.40;6.00;;;;;;;;;;738677;189;625104;-72
2021/04/09 11:49:15;;;;;;;12.90;6.80;;;;;;;;;;742377;189;633439;-71
2021/04/09 11:51:41;;;;;;;8.00;5.77;;;;;;;;;;740351;189;636755;-73
2021/04/09 11:54:07;;;;;;;9.93;5.50;;;;;;;;;;735308;189;626854;-71
2021/04/09 11:56:39;;;;;;;11.83;6.23;;;;;;;;;;740111;189;618618;-72
2021/04/09 11:59:08;;;;;;;11.53;6.20;;;;;;;;;;741430;189;624361;-72
2021/04/09 12:01:34;;;;;;;10.67;6.60;;;;;;;;;;738527;184;944906;-71
2021/04/09 12:04:00;;;;;;;9.53;5.87;;;;;;;;;;738698;189;636845;-72
2021/04/09 12:06:27;;;;;;;13.80;7.05;;;;;;;;;;738661;189;707235;-72
2021/04/09 12:08:52;;;;;;;8.87;5.80;;;;;;;;;;743118;189;620924;-71
2021/04/09 12:11:18;;;;;;;7.80;5.07;;;;;;;;;;733081;189;628244;-70
2021/04/09 12:13:43;;;;;;;8.53;5.53;;;;;;;;;;732902;189;634082;-68
2021/04/09 12:16:09;;;;;;;8.37;5.13;;;;;;;;;;738709;189;917504;-69
2021/04/09 12:18:35;;;;;;;8.60;5.27;;;;;;;;;;732352;189;919703;-69
2021/04/09 12:21:01;;;;;;;9.98;5.93;;;;;;;;;;729797;189;2570311;-71
2021/04/09 12:23:27;;;;;;;11.63;6.33;;;;;;;;;;739064;189;814707;-70
2021/04/09 12:25:57;;;;;;;40.97;7.27;;;;;;;;;;742714;186;919395;-70
2021/04/09 12:28:23;;;;;;;7.70;5.72;;;;;;;;;;724911;190;919438;-69
2021/04/09 12:30:49;;;;;;;9.77;5.77;;;;;;;;;;733069;189;1079304;-67
2021/04/09 12:33:15;;;;;;;11.80;5.90;;;;;;;;;;736297;189;919172;-70
2021/04/09 12:35:41;;;;;;;8.73;5.17;;;;;;;;;;735333;189;918819;-69
2021/04/09 12:38:06;;;;;;;9.47;5.77;;;;;;;;;;732922;187;918727;-70
2021/04/09 12:40:32;;;;;;;13.68;6.12;;;;;;;;;;741469;189;918856;-70
2021/04/09 12:42:58;;;;;;;7.77;4.60;;;;;;;;;;731383;189;1469235;-68
2021/04/09 12:45:24;;;;;;;10.73;5.10;;;;;;;;;;736936;189;919661;-71
2021/04/09 12:47:50;;;;;;;6.57;4.47;;;;;;;;;;733543;189;918482;-71
2021/04/09 12:50:16;;;;;;;8.07;4.87;;;;;;;;;;742454;189;920665;-73
2021/04/09 12:52:42;;;;;;;13.33;5.33;;;;;;;;;;733319;189;1001117;-71
2021/04/09 12:55:08;;;;;;;11.27;5.77;;;;;;;;;;736175;189;918755;-71
2021/04/09 12:57:34;;;;;;;14.67;5.40;;;;;;;;;;739854;189;916217;-69
2021/04/09 12:59:59;;;;;;;8.00;5.37;;;;;;;;;;734124;189;1087647;-71
2021/04/09 13:02:25;;;;;;;17.53;5.43;;;;;;;;;;733409;189;920339;-71
2021/04/09 13:04:51;;;;;;;7.22;4.45;;;;;;;;;;739376;189;919098;-72
2021/04/09 13:07:18;;;;;;;13.70;5.47;;;;;;;;;;731728;189;933481;-71
2021/04/09 13:09:44;;;;;;;7.90;4.30;;;;;;;;;;733845;189;921410;-70
2021/04/09 13:12:10;;;;;;;17.87;5.60;;;;;;;;;;734745;189;919644;-71
2021/04/09 13:14:36;;;;;;;9.43;5.23;;;;;;;;;;736684;189;1194557;-70
2021/04/09 13:17:02;;;;;;;9.60;4.87;;;;;;;;;;738633;189;919481;-73
2021/04/09 13:19:27;;;;;;;13.93;5.07;;;;;;;;;;732771;189;918397;-70
2021/04/09 13:21:53;;;;;;;7.20;4.07;;;;;;;;;;741365;189;938325;-70
2021/04/09 13:24:19;;;;;;;9.03;4.63;;;;;;;;;;736492;189;874904;-70
2021/04/09 13:26:45;;;;;;;11.20;5.70;;;;;;;;;;732448;189;924548;-71
2021/04/09 13:29:11;;;;;;;9.50;5.63;;;;;;;;;;729673;189;2686228;-71
2021/04/09 13:31:37;;;;;;;16.00;5.07;;;;;;;;;;735878;189;919616;-68
2021/04/09 13:34:02;;;;;;;9.05;5.00;;;;;;;;;;733016;189;919644;-70
2021/04/09 13:36:30;;;;;;;10.05;4.18;;;;;;;;;;738282;189;919661;-70
2021/04/09 13:38:56;;;;;;;9.03;5.20;;;;;;;;;;737976;186;922721;-72
2021/04/09 13:41:22;;;;;;;11.50;5.50;;;;;;;;;;735189;189;919473;-71
2021/04/09 13:43:52;;;;;;;6.97;4.57;;;;;;;;;;736453;189;914471;-75
2021/04/09 13:46:15;;;;;;;10.70;5.20;;;;;;;;;;735391;189;919040;-71
2021/04/09 13:48:43;;;;;;;9.07;4.90;;;;;;;;;;733575;188;919742;-71
2021/04/09 13:51:07;;;;;;;9.65;5.18;;;;;;;;;;727971;188;2658055;-72
2021/04/09 13:53:37;;;;;;;8.70;5.53;;;;;;;;;;740975;189;919351;-72
2021/04/09 13:55:59;;;;;;;15.90;5.47;;;;;;;;;;738683;189;918449;-70
2021/04/09 13:58:25;;;;;;;11.43;5.10;;;;;;;;;;737546;189;920119;-68
2021/04/09 14:00:51;;;;;;;12.10;6.50;;;;;;;;;;732490;189;893958;-70
2021/04/09 14:03:17;;;;;;;9.27;4.70;;;;;;;;;;741244;189;919597;-70
2021/04/09 14:05:43;;;;;;;10.57;6.20;;;;;;;;;;732590;189;919740;-69
2021/04/09 14:08:10;;;;;;;10.23;5.30;;;;;;;;;;734336;189;918371;-71
2021/04/09 14:10:34;;;;;;;8.90;5.53;;;;;;;;;;737831;189;919447;-71